sensor_id;sensor_type;location;lat;lon;timestamp;P1;durP1;ratioP1;P2;durP2;ratioP2
78916;SDS011;68315;48.608;11.436;2023-07-31T00:00:05;2.40;;;1.60;;
78916;SDS011;68315;48.608;11.436;2023-07-31T00:02:31;1.63;;;1.20;;
78916;SDS011;68315;48.608;11.436;2023-07-31T00:04:56;2.80;;;1.27;;
78916;SDS011;68315;48.608;11.436;2023-07-31T00:07:22;1.90;;;1.50;;
78916;SDS011;68315;48.608;11.436;2023-07-31T00:09:47;1.98;;;1.38;;
78916;SDS011;68315;48.608;11.436;2023-07-31T00:12:12;7.13;;;2.05;;
78916;SDS011;68315;48.608;11.436;2023-07-31T00:14:37;4.10;;;1.83;;
78916;SDS011;68315;48.608;11.436;2023-07-31T00:17:03;4.38;;;1.80;;
78916;SDS011;68315;48.608;11.436;2023-07-31T00:19:28;2.50;;;1.50;;
78916;SDS011;68315;48.608;11.436;2023-07-31T00:21:53;2.20;;;1.60;;
78916;SDS011;68315;48.608;11.436;2023-07-31T00:24:19;2.20;;;1.40;;
78916;SDS011;68315;48.608;11.436;2023-07-31T00:26:44;2.55;;;1.58;;
78916;SDS011;68315;48.608;11.436;2023-07-31T00:29:09;2.00;;;1.67;;
78916;SDS011;68315;48.608;11.436;2023-07-31T00:31:35;2.47;;;1.60;;
78916;SDS011;68315;48.608;11.436;2023-07-31T00:34:00;3.17;;;1.50;;
78916;SDS011;68315;48.608;11.436;2023-07-31T00:36:25;2.65;;;1.40;;
78916;SDS011;68315;48.608;11.436;2023-07-31T00:38:51;2.60;;;1.42;;
78916;SDS011;68315;48.608;11.436;2023-07-31T00:41:16;2.33;;;1.20;;
78916;SDS011;68315;48.608;11.436;2023-07-31T00:43:41;1.40;;;1.30;;
78916;SDS011;68315;48.608;11.436;2023-07-31T00:46:06;2.58;;;1.70;;
78916;SDS011;68315;48.608;11.436;2023-07-31T00:48:32;3.90;;;1.52;;
78916;SDS011;68315;48.608;11.436;2023-07-31T00:50:57;1.88;;;1.40;;
78916;SDS011;68315;48.608;11.436;2023-07-31T00:53:23;1.83;;;1.42;;
78916;SDS011;68315;48.608;11.436;2023-07-31T00:55:49;4.18;;;1.88;;
78916;SDS011;68315;48.608;11.436;2023-07-31T00:58:15;3.97;;;1.70;;
78916;SDS011;68315;48.608;11.436;2023-07-31T01:00:40;3.25;;;2.03;;
78916;SDS011;68315;48.608;11.436;2023-07-31T01:03:06;4.28;;;1.85;;
78916;SDS011;68315;48.608;11.436;2023-07-31T01:08:17;3.15;;;1.88;;
78916;SDS011;68315;48.608;11.436;2023-07-31T01:10:49;3.30;;;2.30;;
78916;SDS011;68315;48.608;11.436;2023-07-31T01:13:19;3.60;;;2.13;;
78916;SDS011;68315;48.608;11.436;2023-07-31T01:15:46;5.13;;;2.60;;
78916;SDS011;68315;48.608;11.436;2023-07-31T01:18:11;2.60;;;2.20;;
78916;SDS011;68315;48.608;11.436;2023-07-31T01:20:36;2.72;;;2.08;;
78916;SDS011;68315;48.608;11.436;2023-07-31T01:25:46;3.33;;;1.90;;
78916;SDS011;68315;48.608;11.436;2023-07-31T01:28:19;2.22;;;2.00;;
78916;SDS011;68315;48.608;11.436;2023-07-31T01:30:48;2.22;;;1.73;;
78916;SDS011;68315;48.608;11.436;2023-07-31T01:33:14;2.95;;;2.03;;
78916;SDS011;68315;48.608;11.436;2023-07-31T01:35:42;2.22;;;2.03;;
78916;SDS011;68315;48.608;11.436;2023-07-31T01:38:09;4.05;;;2.10;;
78916;SDS011;68315;48.608;11.436;2023-07-31T01:40:35;3.63;;;1.83;;
78916;SDS011;68315;48.608;11.436;2023-07-31T01:43:00;1.95;;;1.50;;
78916;SDS011;68315;48.608;11.436;2023-07-31T01:45:25;3.00;;;1.73;;
78916;SDS011;68315;48.608;11.436;2023-07-31T01:47:51;2.40;;;1.48;;
78916;SDS011;68315;48.608;11.436;2023-07-31T01:50:16;3.35;;;2.20;;
78916;SDS011;68315;48.608;11.436;2023-07-31T01:52:42;3.03;;;2.13;;
78916;SDS011;68315;48.608;11.436;2023-07-31T01:55:07;2.38;;;1.70;;
78916;SDS011;68315;48.608;11.436;2023-07-31T01:57:32;6.30;;;1.83;;
78916;SDS011;68315;48.608;11.436;2023-07-31T01:59:57;3.60;;;1.60;;
78916;SDS011;68315;48.608;11.436;2023-07-31T02:02:23;2.70;;;1.87;;
78916;SDS011;68315;48.608;11.436;2023-07-31T02:04:48;3.97;;;1.77;;
78916;SDS011;68315;48.608;11.436;2023-07-31T02:07:13;2.55;;;1.83;;
78916;SDS011;68315;48.608;11.436;2023-07-31T02:09:39;1.98;;;1.52;;
78916;SDS011;68315;48.608;11.436;2023-07-31T02:12:04;4.57;;;2.15;;
78916;SDS011;68315;48.608;11.436;2023-07-31T02:14:30;3.28;;;1.80;;
78916;SDS011;68315;48.608;11.436;2023-07-31T02:16:55;3.33;;;2.15;;
78916;SDS011;68315;48.608;11.436;2023-07-31T02:19:20;4.93;;;3.20;;
78916;SDS011;68315;48.608;11.436;2023-07-31T02:21:45;2.45;;;1.95;;
78916;SDS011;68315;48.608;11.436;2023-07-31T02:24:11;2.20;;;1.80;;
78916;SDS011;68315;48.608;11.436;2023-07-31T02:26:36;2.42;;;1.67;;
78916;SDS011;68315;48.608;11.436;2023-07-31T02:29:01;2.47;;;2.03;;
78916;SDS011;68315;48.608;11.436;2023-07-31T02:31:26;2.88;;;1.75;;
78916;SDS011;68315;48.608;11.436;2023-07-31T02:33:52;4.50;;;2.05;;
78916;SDS011;68315;48.608;11.436;2023-07-31T02:36:17;4.32;;;1.70;;
78916;SDS011;68315;48.608;11.436;2023-07-31T02:38:42;1.98;;;1.70;;
78916;SDS011;68315;48.608;11.436;2023-07-31T02:41:07;2.13;;;1.80;;
78916;SDS011;68315;48.608;11.436;2023-07-31T02:43:32;2.00;;;1.70;;
78916;SDS011;68315;48.608;11.436;2023-07-31T02:45:59;3.03;;;2.00;;
78916;SDS011;68315;48.608;11.436;2023-07-31T02:48:24;3.25;;;1.85;;
78916;SDS011;68315;48.608;11.436;2023-07-31T02:50:49;2.13;;;1.70;;
78916;SDS011;68315;48.608;11.436;2023-07-31T02:53:15;6.28;;;2.10;;
78916;SDS011;68315;48.608;11.436;2023-07-31T02:55:40;5.32;;;1.90;;
78916;SDS011;68315;48.608;11.436;2023-07-31T02:58:06;3.00;;;2.20;;
78916;SDS011;68315;48.608;11.436;2023-07-31T03:00:31;3.78;;;2.35;;
78916;SDS011;68315;48.608;11.436;2023-07-31T03:02:56;3.45;;;2.38;;
78916;SDS011;68315;48.608;11.436;2023-07-31T03:05:21;3.80;;;2.70;;
78916;SDS011;68315;48.608;11.436;2023-07-31T03:07:47;3.85;;;2.50;;
78916;SDS011;68315;48.608;11.436;2023-07-31T03:10:12;4.43;;;2.75;;
78916;SDS011;68315;48.608;11.436;2023-07-31T03:12:37;3.53;;;3.05;;
78916;SDS011;68315;48.608;11.436;2023-07-31T03:15:02;4.50;;;2.90;;
78916;SDS011;68315;48.608;11.436;2023-07-31T03:17:28;5.28;;;3.15;;
78916;SDS011;68315;48.608;11.436;2023-07-31T03:19:53;4.03;;;2.53;;
78916;SDS011;68315;48.608;11.436;2023-07-31T03:22:19;4.32;;;2.30;;
78916;SDS011;68315;48.608;11.436;2023-07-31T03:24:44;3.00;;;2.25;;
78916;SDS011;68315;48.608;11.436;2023-07-31T03:27:09;1.70;;;1.50;;
78916;SDS011;68315;48.608;11.436;2023-07-31T03:29:34;3.15;;;2.45;;
78916;SDS011;68315;48.608;11.436;2023-07-31T03:32:00;3.90;;;2.30;;
78916;SDS011;68315;48.608;11.436;2023-07-31T03:34:25;2.65;;;2.25;;
78916;SDS011;68315;48.608;11.436;2023-07-31T03:36:51;3.50;;;2.22;;
78916;SDS011;68315;48.608;11.436;2023-07-31T03:39:16;3.83;;;2.58;;
78916;SDS011;68315;48.608;11.436;2023-07-31T03:41:41;5.32;;;3.42;;
78916;SDS011;68315;48.608;11.436;2023-07-31T03:44:06;6.10;;;2.53;;
78916;SDS011;68315;48.608;11.436;2023-07-31T03:46:32;3.65;;;2.55;;
78916;SDS011;68315;48.608;11.436;2023-07-31T03:48:58;5.00;;;2.70;;
78916;SDS011;68315;48.608;11.436;2023-07-31T03:51:24;3.20;;;2.00;;
78916;SDS011;68315;48.608;11.436;2023-07-31T03:53:49;2.58;;;1.90;;
78916;SDS011;68315;48.608;11.436;2023-07-31T03:56:14;3.22;;;2.20;;
78916;SDS011;68315;48.608;11.436;2023-07-31T03:58:39;2.30;;;2.10;;
78916;SDS011;68315;48.608;11.436;2023-07-31T04:01:04;3.05;;;2.42;;
78916;SDS011;68315;48.608;11.436;2023-07-31T04:03:30;3.03;;;2.15;;
78916;SDS011;68315;48.608;11.436;2023-07-31T04:05:55;3.35;;;2.58;;
78916;SDS011;68315;48.608;11.436;2023-07-31T04:08:21;3.15;;;2.15;;
78916;SDS011;68315;48.608;11.436;2023-07-31T04:10:47;3.63;;;2.60;;
78916;SDS011;68315;48.608;11.436;2023-07-31T04:13:12;2.55;;;2.17;;
78916;SDS011;68315;48.608;11.436;2023-07-31T04:15:37;2.83;;;2.00;;
78916;SDS011;68315;48.608;11.436;2023-07-31T04:18:02;2.80;;;1.80;;
78916;SDS011;68315;48.608;11.436;2023-07-31T04:20:28;4.50;;;2.42;;
78916;SDS011;68315;48.608;11.436;2023-07-31T04:22:53;2.95;;;2.10;;
78916;SDS011;68315;48.608;11.436;2023-07-31T04:25:18;2.90;;;2.45;;
78916;SDS011;68315;48.608;11.436;2023-07-31T04:27:43;4.88;;;3.03;;
78916;SDS011;68315;48.608;11.436;2023-07-31T04:30:09;4.18;;;2.30;;
78916;SDS011;68315;48.608;11.436;2023-07-31T04:32:34;5.03;;;3.05;;
78916;SDS011;68315;48.608;11.436;2023-07-31T04:35:00;5.18;;;2.85;;
78916;SDS011;68315;48.608;11.436;2023-07-31T04:37:25;4.53;;;2.88;;
78916;SDS011;68315;48.608;11.436;2023-07-31T04:39:50;5.03;;;2.80;;
78916;SDS011;68315;48.608;11.436;2023-07-31T04:42:16;4.60;;;2.83;;
78916;SDS011;68315;48.608;11.436;2023-07-31T04:44:41;5.78;;;3.30;;
78916;SDS011;68315;48.608;11.436;2023-07-31T04:47:06;3.60;;;2.40;;
78916;SDS011;68315;48.608;11.436;2023-07-31T04:49:32;4.18;;;2.42;;
78916;SDS011;68315;48.608;11.436;2023-07-31T04:51:57;4.30;;;2.20;;
78916;SDS011;68315;48.608;11.436;2023-07-31T04:54:23;2.97;;;2.38;;
78916;SDS011;68315;48.608;11.436;2023-07-31T04:56:48;4.32;;;2.88;;
78916;SDS011;68315;48.608;11.436;2023-07-31T04:59:13;3.75;;;2.30;;
78916;SDS011;68315;48.608;11.436;2023-07-31T05:01:38;5.68;;;2.88;;
78916;SDS011;68315;48.608;11.436;2023-07-31T05:04:03;3.92;;;2.70;;
78916;SDS011;68315;48.608;11.436;2023-07-31T05:06:29;4.45;;;3.30;;
78916;SDS011;68315;48.608;11.436;2023-07-31T05:08:54;5.00;;;3.10;;
78916;SDS011;68315;48.608;11.436;2023-07-31T05:11:19;4.10;;;2.70;;
78916;SDS011;68315;48.608;11.436;2023-07-31T05:13:44;2.58;;;2.17;;
78916;SDS011;68315;48.608;11.436;2023-07-31T05:16:10;2.97;;;1.95;;
78916;SDS011;68315;48.608;11.436;2023-07-31T05:18:35;3.58;;;1.75;;
78916;SDS011;68315;48.608;11.436;2023-07-31T05:21:00;6.55;;;3.25;;
78916;SDS011;68315;48.608;11.436;2023-07-31T05:23:25;3.55;;;2.40;;
78916;SDS011;68315;48.608;11.436;2023-07-31T05:25:51;4.97;;;2.80;;
78916;SDS011;68315;48.608;11.436;2023-07-31T05:28:16;3.00;;;2.15;;
78916;SDS011;68315;48.608;11.436;2023-07-31T05:30:41;2.63;;;1.80;;
78916;SDS011;68315;48.608;11.436;2023-07-31T05:33:06;3.30;;;2.00;;
78916;SDS011;68315;48.608;11.436;2023-07-31T05:35:32;5.78;;;3.05;;
78916;SDS011;68315;48.608;11.436;2023-07-31T05:37:57;3.35;;;2.90;;
78916;SDS011;68315;48.608;11.436;2023-07-31T05:40:22;3.40;;;2.40;;
78916;SDS011;68315;48.608;11.436;2023-07-31T05:42:47;3.30;;;2.47;;
78916;SDS011;68315;48.608;11.436;2023-07-31T05:45:13;4.53;;;2.60;;
78916;SDS011;68315;48.608;11.436;2023-07-31T05:47:38;4.20;;;2.50;;
78916;SDS011;68315;48.608;11.436;2023-07-31T05:50:04;4.03;;;2.83;;
78916;SDS011;68315;48.608;11.436;2023-07-31T05:52:30;4.63;;;2.40;;
78916;SDS011;68315;48.608;11.436;2023-07-31T05:54:55;5.13;;;2.40;;
78916;SDS011;68315;48.608;11.436;2023-07-31T05:57:20;3.80;;;2.63;;
78916;SDS011;68315;48.608;11.436;2023-07-31T05:59:45;3.27;;;2.67;;
78916;SDS011;68315;48.608;11.436;2023-07-31T06:02:11;5.57;;;2.70;;
78916;SDS011;68315;48.608;11.436;2023-07-31T06:04:36;4.53;;;2.60;;
78916;SDS011;68315;48.608;11.436;2023-07-31T06:07:03;4.05;;;2.58;;
78916;SDS011;68315;48.608;11.436;2023-07-31T06:09:29;3.97;;;2.38;;
78916;SDS011;68315;48.608;11.436;2023-07-31T06:11:54;4.53;;;2.35;;
78916;SDS011;68315;48.608;11.436;2023-07-31T06:14:19;4.72;;;2.40;;
78916;SDS011;68315;48.608;11.436;2023-07-31T06:16:44;4.30;;;2.57;;
78916;SDS011;68315;48.608;11.436;2023-07-31T06:19:10;3.55;;;2.33;;
78916;SDS011;68315;48.608;11.436;2023-07-31T06:21:35;5.82;;;2.63;;
78916;SDS011;68315;48.608;11.436;2023-07-31T06:24:05;3.58;;;2.70;;
78916;SDS011;68315;48.608;11.436;2023-07-31T06:26:30;5.07;;;2.60;;
78916;SDS011;68315;48.608;11.436;2023-07-31T06:28:56;2.50;;;2.13;;
78916;SDS011;68315;48.608;11.436;2023-07-31T06:31:21;6.30;;;3.30;;
78916;SDS011;68315;48.608;11.436;2023-07-31T06:33:48;4.13;;;2.45;;
78916;SDS011;68315;48.608;11.436;2023-07-31T06:36:14;4.47;;;2.42;;
78916;SDS011;68315;48.608;11.436;2023-07-31T06:38:39;4.07;;;2.72;;
78916;SDS011;68315;48.608;11.436;2023-07-31T06:41:04;3.47;;;2.47;;
78916;SDS011;68315;48.608;11.436;2023-07-31T06:43:30;4.28;;;2.58;;
78916;SDS011;68315;48.608;11.436;2023-07-31T06:45:55;3.90;;;2.25;;
78916;SDS011;68315;48.608;11.436;2023-07-31T06:48:20;3.92;;;2.40;;
78916;SDS011;68315;48.608;11.436;2023-07-31T06:50:45;4.00;;;2.50;;
78916;SDS011;68315;48.608;11.436;2023-07-31T06:53:10;3.92;;;2.58;;
78916;SDS011;68315;48.608;11.436;2023-07-31T06:55:36;3.22;;;2.38;;
78916;SDS011;68315;48.608;11.436;2023-07-31T06:58:01;8.23;;;2.50;;
78916;SDS011;68315;48.608;11.436;2023-07-31T07:00:26;4.68;;;2.60;;
78916;SDS011;68315;48.608;11.436;2023-07-31T07:02:52;3.15;;;2.05;;
78916;SDS011;68315;48.608;11.436;2023-07-31T07:05:17;4.82;;;3.10;;
78916;SDS011;68315;48.608;11.436;2023-07-31T07:07:43;3.17;;;2.20;;
78916;SDS011;68315;48.608;11.436;2023-07-31T07:10:08;6.05;;;2.42;;
78916;SDS011;68315;48.608;11.436;2023-07-31T07:12:35;5.65;;;2.85;;
78916;SDS011;68315;48.608;11.436;2023-07-31T07:15:00;3.55;;;2.63;;
78916;SDS011;68315;48.608;11.436;2023-07-31T07:17:27;3.70;;;2.53;;
78916;SDS011;68315;48.608;11.436;2023-07-31T07:19:53;4.90;;;2.58;;
78916;SDS011;68315;48.608;11.436;2023-07-31T07:22:18;3.55;;;1.95;;
78916;SDS011;68315;48.608;11.436;2023-07-31T07:24:43;7.80;;;2.60;;
78916;SDS011;68315;48.608;11.436;2023-07-31T07:27:09;4.88;;;2.83;;
78916;SDS011;68315;48.608;11.436;2023-07-31T07:29:34;4.85;;;2.38;;
78916;SDS011;68315;48.608;11.436;2023-07-31T07:32:00;6.45;;;2.80;;
78916;SDS011;68315;48.608;11.436;2023-07-31T07:34:26;4.50;;;2.75;;
78916;SDS011;68315;48.608;11.436;2023-07-31T07:36:52;5.55;;;2.60;;
78916;SDS011;68315;48.608;11.436;2023-07-31T07:39:18;2.75;;;2.40;;
78916;SDS011;68315;48.608;11.436;2023-07-31T07:41:43;2.30;;;2.08;;
78916;SDS011;68315;48.608;11.436;2023-07-31T07:44:09;5.27;;;2.40;;
78916;SDS011;68315;48.608;11.436;2023-07-31T07:46:34;4.80;;;2.05;;
78916;SDS011;68315;48.608;11.436;2023-07-31T07:48:59;3.05;;;2.17;;
78916;SDS011;68315;48.608;11.436;2023-07-31T07:51:24;4.38;;;2.28;;
78916;SDS011;68315;48.608;11.436;2023-07-31T07:53:50;3.77;;;2.50;;
78916;SDS011;68315;48.608;11.436;2023-07-31T07:56:15;3.92;;;2.17;;
78916;SDS011;68315;48.608;11.436;2023-07-31T07:58:40;4.13;;;2.05;;
78916;SDS011;68315;48.608;11.436;2023-07-31T08:01:06;3.23;;;2.00;;
78916;SDS011;68315;48.608;11.436;2023-07-31T08:03:31;4.22;;;2.17;;
78916;SDS011;68315;48.608;11.436;2023-07-31T08:06:00;2.90;;;2.22;;
78916;SDS011;68315;48.608;11.436;2023-07-31T08:08:26;5.25;;;2.03;;
78916;SDS011;68315;48.608;11.436;2023-07-31T08:10:51;3.95;;;2.20;;
78916;SDS011;68315;48.608;11.436;2023-07-31T08:13:16;4.40;;;2.23;;
78916;SDS011;68315;48.608;11.436;2023-07-31T08:15:42;4.00;;;2.00;;
78916;SDS011;68315;48.608;11.436;2023-07-31T08:18:07;4.00;;;2.08;;
78916;SDS011;68315;48.608;11.436;2023-07-31T08:20:33;4.03;;;2.30;;
78916;SDS011;68315;48.608;11.436;2023-07-31T08:22:58;2.95;;;1.77;;
78916;SDS011;68315;48.608;11.436;2023-07-31T08:25:23;3.13;;;2.13;;
78916;SDS011;68315;48.608;11.436;2023-07-31T08:27:49;4.60;;;2.33;;
78916;SDS011;68315;48.608;11.436;2023-07-31T08:30:14;7.97;;;2.40;;
78916;SDS011;68315;48.608;11.436;2023-07-31T08:32:39;4.63;;;2.10;;
78916;SDS011;68315;48.608;11.436;2023-07-31T08:35:04;4.03;;;2.10;;
78916;SDS011;68315;48.608;11.436;2023-07-31T08:37:30;3.03;;;2.53;;
78916;SDS011;68315;48.608;11.436;2023-07-31T08:39:55;5.77;;;2.13;;
78916;SDS011;68315;48.608;11.436;2023-07-31T08:42:20;5.15;;;2.22;;
78916;SDS011;68315;48.608;11.436;2023-07-31T08:44:46;4.55;;;2.33;;
78916;SDS011;68315;48.608;11.436;2023-07-31T08:47:12;5.65;;;2.28;;
78916;SDS011;68315;48.608;11.436;2023-07-31T08:49:37;4.47;;;2.30;;
78916;SDS011;68315;48.608;11.436;2023-07-31T08:52:03;4.18;;;2.08;;
78916;SDS011;68315;48.608;11.436;2023-07-31T08:54:29;3.50;;;2.10;;
78916;SDS011;68315;48.608;11.436;2023-07-31T08:56:56;2.13;;;1.83;;
78916;SDS011;68315;48.608;11.436;2023-07-31T08:59:22;2.47;;;2.22;;
78916;SDS011;68315;48.608;11.436;2023-07-31T09:01:49;2.95;;;1.80;;
78916;SDS011;68315;48.608;11.436;2023-07-31T09:04:17;3.00;;;1.88;;
78916;SDS011;68315;48.608;11.436;2023-07-31T09:06:44;3.25;;;2.00;;
78916;SDS011;68315;48.608;11.436;2023-07-31T09:09:10;3.85;;;2.10;;
78916;SDS011;68315;48.608;11.436;2023-07-31T09:11:36;4.20;;;2.20;;
78916;SDS011;68315;48.608;11.436;2023-07-31T09:14:02;3.43;;;1.77;;
78916;SDS011;68315;48.608;11.436;2023-07-31T09:16:33;4.88;;;2.22;;
78916;SDS011;68315;48.608;11.436;2023-07-31T09:18:59;3.58;;;1.90;;
78916;SDS011;68315;48.608;11.436;2023-07-31T09:21:26;4.13;;;2.22;;
78916;SDS011;68315;48.608;11.436;2023-07-31T09:23:52;4.22;;;2.20;;
78916;SDS011;68315;48.608;11.436;2023-07-31T09:26:28;7.22;;;1.88;;
78916;SDS011;68315;48.608;11.436;2023-07-31T09:28:55;3.67;;;2.10;;
78916;SDS011;68315;48.608;11.436;2023-07-31T09:31:33;5.35;;;1.88;;
78916;SDS011;68315;48.608;11.436;2023-07-31T09:34:04;4.25;;;1.80;;
78916;SDS011;68315;48.608;11.436;2023-07-31T09:36:30;3.70;;;2.03;;
78916;SDS011;68315;48.608;11.436;2023-07-31T09:39:01;5.68;;;2.30;;
78916;SDS011;68315;48.608;11.436;2023-07-31T09:41:28;5.25;;;2.20;;
78916;SDS011;68315;48.608;11.436;2023-07-31T09:43:54;5.80;;;2.17;;
78916;SDS011;68315;48.608;11.436;2023-07-31T09:46:20;4.72;;;2.10;;
78916;SDS011;68315;48.608;11.436;2023-07-31T09:48:46;5.00;;;2.25;;
78916;SDS011;68315;48.608;11.436;2023-07-31T09:51:13;3.95;;;2.17;;
78916;SDS011;68315;48.608;11.436;2023-07-31T09:53:39;4.22;;;1.90;;
78916;SDS011;68315;48.608;11.436;2023-07-31T09:56:04;3.97;;;1.97;;
78916;SDS011;68315;48.608;11.436;2023-07-31T09:58:29;3.92;;;1.92;;
78916;SDS011;68315;48.608;11.436;2023-07-31T10:00:59;4.65;;;2.03;;
78916;SDS011;68315;48.608;11.436;2023-07-31T10:03:26;3.88;;;1.77;;
78916;SDS011;68315;48.608;11.436;2023-07-31T10:05:52;3.95;;;1.98;;
78916;SDS011;68315;48.608;11.436;2023-07-31T10:08:21;2.67;;;1.85;;
78916;SDS011;68315;48.608;11.436;2023-07-31T10:10:48;6.55;;;2.10;;
78916;SDS011;68315;48.608;11.436;2023-07-31T10:13:13;2.95;;;2.25;;
78916;SDS011;68315;48.608;11.436;2023-07-31T10:15:39;4.10;;;1.90;;
78916;SDS011;68315;48.608;11.436;2023-07-31T10:18:08;4.35;;;2.13;;
78916;SDS011;68315;48.608;11.436;2023-07-31T10:20:34;6.30;;;2.40;;
78916;SDS011;68315;48.608;11.436;2023-07-31T10:22:59;5.22;;;2.50;;
78916;SDS011;68315;48.608;11.436;2023-07-31T10:25:26;3.45;;;2.08;;
78916;SDS011;68315;48.608;11.436;2023-07-31T10:27:52;3.58;;;2.25;;
78916;SDS011;68315;48.608;11.436;2023-07-31T10:30:21;4.03;;;1.80;;
78916;SDS011;68315;48.608;11.436;2023-07-31T10:32:49;5.85;;;2.08;;
78916;SDS011;68315;48.608;11.436;2023-07-31T10:35:16;3.92;;;2.53;;
78916;SDS011;68315;48.608;11.436;2023-07-31T10:37:43;3.05;;;2.00;;
78916;SDS011;68315;48.608;11.436;2023-07-31T10:40:18;3.78;;;1.95;;
78916;SDS011;68315;48.608;11.436;2023-07-31T10:42:48;7.38;;;2.20;;
78916;SDS011;68315;48.608;11.436;2023-07-31T10:45:24;4.03;;;2.13;;
78916;SDS011;68315;48.608;11.436;2023-07-31T10:47:59;4.15;;;2.20;;
78916;SDS011;68315;48.608;11.436;2023-07-31T10:50:26;3.58;;;2.10;;
78916;SDS011;68315;48.608;11.436;2023-07-31T10:52:53;2.97;;;1.90;;
78916;SDS011;68315;48.608;11.436;2023-07-31T10:57:52;4.15;;;2.20;;
78916;SDS011;68315;48.608;11.436;2023-07-31T11:00:19;4.82;;;2.13;;
78916;SDS011;68315;48.608;11.436;2023-07-31T11:02:56;3.53;;;2.10;;
78916;SDS011;68315;48.608;11.436;2023-07-31T11:05:22;2.63;;;1.73;;
78916;SDS011;68315;48.608;11.436;2023-07-31T11:08:11;3.58;;;2.00;;
78916;SDS011;68315;48.608;11.436;2023-07-31T11:10:44;3.42;;;2.05;;
78916;SDS011;68315;48.608;11.436;2023-07-31T11:13:11;3.10;;;2.10;;
78916;SDS011;68315;48.608;11.436;2023-07-31T11:15:36;4.63;;;2.10;;
78916;SDS011;68315;48.608;11.436;2023-07-31T11:18:02;3.70;;;1.70;;
78916;SDS011;68315;48.608;11.436;2023-07-31T11:20:34;4.65;;;1.90;;
78916;SDS011;68315;48.608;11.436;2023-07-31T11:23:00;4.13;;;1.80;;
78916;SDS011;68315;48.608;11.436;2023-07-31T11:25:28;6.00;;;1.98;;
78916;SDS011;68315;48.608;11.436;2023-07-31T11:27:54;3.38;;;2.10;;
78916;SDS011;68315;48.608;11.436;2023-07-31T11:30:21;4.03;;;2.20;;
78916;SDS011;68315;48.608;11.436;2023-07-31T11:32:46;5.28;;;2.20;;
78916;SDS011;68315;48.608;11.436;2023-07-31T11:35:12;3.10;;;1.90;;
78916;SDS011;68315;48.608;11.436;2023-07-31T11:37:38;4.35;;;2.13;;
78916;SDS011;68315;48.608;11.436;2023-07-31T11:40:07;3.85;;;2.20;;
78916;SDS011;68315;48.608;11.436;2023-07-31T11:42:34;3.78;;;2.13;;
78916;SDS011;68315;48.608;11.436;2023-07-31T11:45:02;5.28;;;1.98;;
78916;SDS011;68315;48.608;11.436;2023-07-31T11:47:32;3.97;;;2.00;;
78916;SDS011;68315;48.608;11.436;2023-07-31T11:49:59;4.72;;;2.00;;
78916;SDS011;68315;48.608;11.436;2023-07-31T11:52:24;2.63;;;1.92;;
78916;SDS011;68315;48.608;11.436;2023-07-31T11:54:50;3.15;;;1.83;;
78916;SDS011;68315;48.608;11.436;2023-07-31T11:57:16;3.33;;;1.95;;
78916;SDS011;68315;48.608;11.436;2023-07-31T11:59:41;3.28;;;2.10;;
78916;SDS011;68315;48.608;11.436;2023-07-31T12:02:07;2.58;;;1.80;;
78916;SDS011;68315;48.608;11.436;2023-07-31T12:04:33;5.13;;;2.30;;
78916;SDS011;68315;48.608;11.436;2023-07-31T12:07:00;2.80;;;1.80;;
78916;SDS011;68315;48.608;11.436;2023-07-31T12:09:25;2.95;;;1.80;;
78916;SDS011;68315;48.608;11.436;2023-07-31T12:11:51;4.97;;;2.08;;
78916;SDS011;68315;48.608;11.436;2023-07-31T12:16:46;3.92;;;2.20;;
78916;SDS011;68315;48.608;11.436;2023-07-31T12:19:11;6.70;;;2.40;;
78916;SDS011;68315;48.608;11.436;2023-07-31T12:21:37;3.40;;;2.00;;
78916;SDS011;68315;48.608;11.436;2023-07-31T12:24:03;7.30;;;2.13;;
78916;SDS011;68315;48.608;11.436;2023-07-31T12:26:33;3.28;;;1.77;;
78916;SDS011;68315;48.608;11.436;2023-07-31T12:28:59;4.60;;;1.77;;
78916;SDS011;68315;48.608;11.436;2023-07-31T12:31:25;6.23;;;2.60;;
78916;SDS011;68315;48.608;11.436;2023-07-31T12:33:53;3.63;;;2.05;;
78916;SDS011;68315;48.608;11.436;2023-07-31T12:36:21;3.55;;;2.35;;
78916;SDS011;68315;48.608;11.436;2023-07-31T12:38:47;3.83;;;2.20;;
78916;SDS011;68315;48.608;11.436;2023-07-31T12:41:14;4.47;;;2.35;;
78916;SDS011;68315;48.608;11.436;2023-07-31T12:43:40;4.67;;;2.03;;
78916;SDS011;68315;48.608;11.436;2023-07-31T12:46:06;3.10;;;1.80;;
78916;SDS011;68315;48.608;11.436;2023-07-31T12:48:37;4.80;;;2.42;;
78916;SDS011;68315;48.608;11.436;2023-07-31T12:51:03;2.50;;;1.92;;
78916;SDS011;68315;48.608;11.436;2023-07-31T12:53:28;4.20;;;2.10;;
78916;SDS011;68315;48.608;11.436;2023-07-31T12:55:55;3.10;;;1.98;;
78916;SDS011;68315;48.608;11.436;2023-07-31T12:58:21;3.55;;;2.20;;
78916;SDS011;68315;48.608;11.436;2023-07-31T13:00:46;4.13;;;2.03;;
78916;SDS011;68315;48.608;11.436;2023-07-31T13:03:11;3.87;;;2.17;;
78916;SDS011;68315;48.608;11.436;2023-07-31T13:05:36;4.43;;;2.20;;
78916;SDS011;68315;48.608;11.436;2023-07-31T13:08:02;2.33;;;1.50;;
78916;SDS011;68315;48.608;11.436;2023-07-31T13:10:27;4.13;;;2.25;;
78916;SDS011;68315;48.608;11.436;2023-07-31T13:12:53;3.67;;;2.42;;
78916;SDS011;68315;48.608;11.436;2023-07-31T13:15:19;3.75;;;2.10;;
78916;SDS011;68315;48.608;11.436;2023-07-31T13:17:45;3.23;;;1.60;;
78916;SDS011;68315;48.608;11.436;2023-07-31T13:20:11;3.85;;;2.10;;
78916;SDS011;68315;48.608;11.436;2023-07-31T13:22:36;3.72;;;1.85;;
78916;SDS011;68315;48.608;11.436;2023-07-31T13:25:02;2.60;;;1.83;;
78916;SDS011;68315;48.608;11.436;2023-07-31T13:27:27;2.60;;;1.83;;
78916;SDS011;68315;48.608;11.436;2023-07-31T13:29:53;3.72;;;1.85;;
78916;SDS011;68315;48.608;11.436;2023-07-31T13:32:19;3.70;;;1.90;;
78916;SDS011;68315;48.608;11.436;2023-07-31T13:34:45;3.42;;;1.80;;
78916;SDS011;68315;48.608;11.436;2023-07-31T13:37:10;3.65;;;1.80;;
78916;SDS011;68315;48.608;11.436;2023-07-31T13:39:36;4.50;;;2.20;;
78916;SDS011;68315;48.608;11.436;2023-07-31T13:42:02;4.07;;;2.10;;
78916;SDS011;68315;48.608;11.436;2023-07-31T13:44:28;3.00;;;2.20;;
78916;SDS011;68315;48.608;11.436;2023-07-31T13:46:53;6.47;;;1.87;;
78916;SDS011;68315;48.608;11.436;2023-07-31T13:49:18;3.20;;;1.83;;
78916;SDS011;68315;48.608;11.436;2023-07-31T13:51:44;5.43;;;2.20;;
78916;SDS011;68315;48.608;11.436;2023-07-31T13:54:09;3.35;;;2.00;;
78916;SDS011;68315;48.608;11.436;2023-07-31T13:56:36;4.85;;;1.85;;
78916;SDS011;68315;48.608;11.436;2023-07-31T13:59:02;2.85;;;2.20;;
78916;SDS011;68315;48.608;11.436;2023-07-31T14:01:27;3.97;;;2.23;;
78916;SDS011;68315;48.608;11.436;2023-07-31T14:03:52;4.88;;;2.30;;
78916;SDS011;68315;48.608;11.436;2023-07-31T14:06:18;3.93;;;2.10;;
78916;SDS011;68315;48.608;11.436;2023-07-31T14:08:44;2.88;;;2.10;;
78916;SDS011;68315;48.608;11.436;2023-07-31T14:11:09;19.83;;;2.63;;
78916;SDS011;68315;48.608;11.436;2023-07-31T14:13:34;3.30;;;2.20;;
78916;SDS011;68315;48.608;11.436;2023-07-31T14:15:59;5.77;;;2.40;;
78916;SDS011;68315;48.608;11.436;2023-07-31T14:18:24;3.83;;;2.63;;
78916;SDS011;68315;48.608;11.436;2023-07-31T14:20:50;2.80;;;2.10;;
78916;SDS011;68315;48.608;11.436;2023-07-31T14:23:16;4.25;;;2.50;;
78916;SDS011;68315;48.608;11.436;2023-07-31T14:25:42;3.23;;;2.10;;
78916;SDS011;68315;48.608;11.436;2023-07-31T14:28:07;4.00;;;2.50;;
78916;SDS011;68315;48.608;11.436;2023-07-31T14:30:33;4.22;;;2.50;;
78916;SDS011;68315;48.608;11.436;2023-07-31T14:32:58;3.97;;;2.55;;
78916;SDS011;68315;48.608;11.436;2023-07-31T14:35:25;3.10;;;2.25;;